RYR97SR LIMJ-LIRN
Flight info
| Callsign | RYR97SR |
|---|---|
| Flight time | 0h 54m |
| Altitude | 37000 |
| Route | UNITA L50 KONER DCT ELB DCT ELVIN DCT RIFFI DCT PNZ |
| Aircraft | B738/M-SDE2E3FGHIRWXY/LB1 |
Departure
| Time | 2026-05-09 07:16 |
|---|---|
| Airport | Genoa Cristoforo Colombo Airport (LIMJ) |
Arrival
| Time | 2026-05-09 08:10 |
|---|---|
| Airport | Naples International Airport (LIRN) |
| Time | Latitude | Longitude | Altitude | Speed | Heading |
|---|---|---|---|---|---|
| 2026-05-09 06:52 | 44.41494 | 8.84902 | 17 ft | 0 kts | 105° |
| 2026-05-09 07:08 | 44.41496 | 8.84890 | 19 ft | 4 kts | 100° |
| 2026-05-09 07:08 | 44.41496 | 8.84854 | 20 ft | 4 kts | 78° |
| 2026-05-09 07:08 | 44.41493 | 8.84826 | 18 ft | 4 kts | 99° |
| 2026-05-09 07:08 | 44.41504 | 8.84799 | 20 ft | 4 kts | 155° |
| 2026-05-09 07:09 | 44.41526 | 8.84795 | 17 ft | 4 kts | 217° |
| 2026-05-09 07:09 | 44.41530 | 8.84800 | 17 ft | 0 kts | 232° |
| 2026-05-09 07:11 | 44.41511 | 8.84765 | 18 ft | 9 kts | 232° |
| 2026-05-09 07:11 | 44.41458 | 8.84670 | 18 ft | 15 kts | 232° |
| 2026-05-09 07:12 | 44.41393 | 8.84552 | 17 ft | 15 kts | 232° |
| 2026-05-09 07:12 | 44.41330 | 8.84438 | 17 ft | 15 kts | 235° |
| 2026-05-09 07:12 | 44.41327 | 8.84300 | 16 ft | 17 kts | 285° |
| 2026-05-09 07:12 | 44.41366 | 8.84097 | 16 ft | 25 kts | 285° |
| 2026-05-09 07:13 | 44.41419 | 8.83831 | 19 ft | 30 kts | 285° |
| 2026-05-09 07:13 | 44.41471 | 8.83564 | 21 ft | 28 kts | 285° |
| 2026-05-09 07:13 | 44.41520 | 8.83310 | 23 ft | 26 kts | 285° |
| 2026-05-09 07:13 | 44.41568 | 8.83072 | 22 ft | 25 kts | 285° |
| 2026-05-09 07:14 | 44.41612 | 8.82850 | 19 ft | 23 kts | 285° |
| 2026-05-09 07:14 | 44.41652 | 8.82643 | 16 ft | 18 kts | 285° |
| 2026-05-09 07:14 | 44.41647 | 8.82520 | 16 ft | 12 kts | 219° |
| 2026-05-09 07:14 | 44.41567 | 8.82478 | 14 ft | 12 kts | 199° |
| 2026-05-09 07:15 | 44.41529 | 8.82490 | 15 ft | 5 kts | 107° |
| 2026-05-09 07:15 | 44.41508 | 8.82592 | 17 ft | 30 kts | 105° |
| 2026-05-09 07:15 | 44.41393 | 8.83176 | 21 ft | 93 kts | 105° |
| 2026-05-09 07:15 | 44.41174 | 8.84302 | 25 ft | 144 kts | 106° |
| 2026-05-09 07:16 | 44.40880 | 8.85744 | 367 ft | 157 kts | 104° |
| 2026-05-09 07:16 | 44.40587 | 8.87236 | 931 ft | 162 kts | 104° |
| 2026-05-09 07:16 | 44.39992 | 8.88592 | 1420 ft | 175 kts | 141° |
| 2026-05-09 07:16 | 44.38827 | 8.89302 | 1835 ft | 192 kts | 164° |
| 2026-05-09 07:17 | 44.37504 | 8.89840 | 2368 ft | 199 kts | 163° |
| 2026-05-09 07:17 | 44.36199 | 8.90392 | 3073 ft | 200 kts | 163° |
| 2026-05-09 07:17 | 44.34871 | 8.90958 | 3748 ft | 199 kts | 163° |
| 2026-05-09 07:17 | 44.33559 | 8.91502 | 4455 ft | 195 kts | 164° |
| 2026-05-09 07:18 | 44.32265 | 8.92027 | 5128 ft | 194 kts | 164° |
| 2026-05-09 07:18 | 44.30961 | 8.92638 | 5560 ft | 206 kts | 160° |
| 2026-05-09 07:18 | 44.29550 | 8.93387 | 5732 ft | 228 kts | 159° |
| 2026-05-09 07:18 | 44.27994 | 8.94211 | 5919 ft | 252 kts | 159° |
| 2026-05-09 07:19 | 44.26291 | 8.95110 | 6284 ft | 268 kts | 159° |
| 2026-05-09 07:19 | 44.24546 | 8.96029 | 6877 ft | 274 kts | 159° |
| 2026-05-09 07:19 | 44.22758 | 8.96969 | 7578 ft | 276 kts | 160° |
| 2026-05-09 07:19 | 44.20950 | 8.97918 | 8312 ft | 279 kts | 160° |
| 2026-05-09 07:20 | 44.19121 | 8.98875 | 9028 ft | 283 kts | 160° |
| 2026-05-09 07:20 | 44.17266 | 8.99846 | 9755 ft | 286 kts | 160° |
| 2026-05-09 07:20 | 44.15409 | 9.00900 | 10408 ft | 294 kts | 152° |
| 2026-05-09 07:20 | 44.13712 | 9.02676 | 10591 ft | 317 kts | 139° |
| 2026-05-09 07:21 | 44.12019 | 9.04797 | 10845 ft | 336 kts | 138° |
| 2026-05-09 07:21 | 44.10302 | 9.07000 | 11375 ft | 344 kts | 138° |
| 2026-05-09 07:21 | 44.08531 | 9.09275 | 12040 ft | 349 kts | 139° |
| 2026-05-09 07:21 | 44.06736 | 9.11570 | 12750 ft | 353 kts | 139° |
| 2026-05-09 07:22 | 44.04914 | 9.13884 | 13467 ft | 357 kts | 139° |
| 2026-05-09 07:22 | 44.03064 | 9.16221 | 14137 ft | 362 kts | 140° |
| 2026-05-09 07:22 | 44.01184 | 9.18586 | 14762 ft | 367 kts | 140° |
| 2026-05-09 07:22 | 43.99273 | 9.20981 | 15394 ft | 373 kts | 140° |
| 2026-05-09 07:23 | 43.97332 | 9.23409 | 16041 ft | 378 kts | 141° |
| 2026-05-09 07:23 | 43.95390 | 9.25832 | 16659 ft | 383 kts | 141° |
| 2026-05-09 07:23 | 43.93393 | 9.28322 | 17286 ft | 389 kts | 141° |
| 2026-05-09 07:23 | 43.91366 | 9.30845 | 17908 ft | 394 kts | 141° |
| 2026-05-09 07:24 | 43.89312 | 9.33400 | 18503 ft | 399 kts | 141° |
| 2026-05-09 07:24 | 43.87230 | 9.35987 | 19045 ft | 404 kts | 142° |
| 2026-05-09 07:24 | 43.85126 | 9.38599 | 19597 ft | 408 kts | 142° |
| 2026-05-09 07:24 | 43.83002 | 9.41233 | 20139 ft | 412 kts | 142° |
| 2026-05-09 07:25 | 43.80885 | 9.43857 | 20674 ft | 416 kts | 142° |
| 2026-05-09 07:25 | 43.78716 | 9.46541 | 21204 ft | 420 kts | 142° |
| 2026-05-09 07:25 | 43.76521 | 9.49255 | 21676 ft | 426 kts | 142° |
| 2026-05-09 07:25 | 43.74296 | 9.52002 | 22177 ft | 430 kts | 142° |
| 2026-05-09 07:26 | 43.72053 | 9.54770 | 22706 ft | 434 kts | 142° |
| 2026-05-09 07:26 | 43.69790 | 9.57560 | 23216 ft | 438 kts | 142° |
| 2026-05-09 07:26 | 43.67507 | 9.60372 | 23692 ft | 442 kts | 142° |
| 2026-05-09 07:26 | 43.65200 | 9.63210 | 24087 ft | 446 kts | 142° |
| 2026-05-09 07:27 | 43.62868 | 9.66074 | 24511 ft | 449 kts | 142° |
| 2026-05-09 07:27 | 43.60558 | 9.68911 | 24902 ft | 452 kts | 143° |
| 2026-05-09 07:27 | 43.58199 | 9.71803 | 25310 ft | 455 kts | 143° |
| 2026-05-09 07:27 | 43.55824 | 9.74712 | 25710 ft | 458 kts | 143° |
| 2026-05-09 07:28 | 43.53430 | 9.77642 | 26092 ft | 462 kts | 143° |
| 2026-05-09 07:28 | 43.51021 | 9.80585 | 26477 ft | 465 kts | 143° |
| 2026-05-09 07:28 | 43.48595 | 9.83546 | 26853 ft | 468 kts | 143° |
| 2026-05-09 07:28 | 43.46143 | 9.86534 | 27146 ft | 473 kts | 143° |
| 2026-05-09 07:29 | 43.43671 | 9.89545 | 27473 ft | 477 kts | 143° |
| 2026-05-09 07:29 | 43.41213 | 9.92535 | 27858 ft | 479 kts | 143° |
| 2026-05-09 07:29 | 43.38712 | 9.95576 | 28229 ft | 481 kts | 143° |
| 2026-05-09 07:29 | 43.36201 | 9.98624 | 28614 ft | 483 kts | 143° |
| 2026-05-09 07:30 | 43.33674 | 10.01689 | 28958 ft | 486 kts | 143° |
| 2026-05-09 07:30 | 43.31132 | 10.04767 | 29262 ft | 489 kts | 143° |
| 2026-05-09 07:30 | 43.28572 | 10.07862 | 29576 ft | 492 kts | 144° |
| 2026-05-09 07:30 | 43.26002 | 10.10967 | 29892 ft | 494 kts | 144° |
| 2026-05-09 07:31 | 43.23411 | 10.14093 | 30195 ft | 497 kts | 144° |
| 2026-05-09 07:31 | 43.20810 | 10.17228 | 30462 ft | 499 kts | 144° |
| 2026-05-09 07:31 | 43.18234 | 10.20329 | 30733 ft | 500 kts | 144° |
| 2026-05-09 07:31 | 43.15611 | 10.23484 | 30923 ft | 503 kts | 144° |
| 2026-05-09 07:32 | 43.12985 | 10.26639 | 31274 ft | 503 kts | 144° |
| 2026-05-09 07:32 | 43.10361 | 10.29790 | 31705 ft | 500 kts | 144° |
| 2026-05-09 07:32 | 43.07755 | 10.32917 | 32122 ft | 498 kts | 145° |
| 2026-05-09 07:32 | 43.05149 | 10.36038 | 32451 ft | 498 kts | 145° |
| 2026-05-09 07:33 | 43.02543 | 10.39152 | 32756 ft | 498 kts | 145° |
| 2026-05-09 07:33 | 42.97369 | 10.45325 | 33468 ft | 496 kts | 146° |
| 2026-05-09 07:33 | 42.94772 | 10.48418 | 33803 ft | 495 kts | 146° |
| 2026-05-09 07:34 | 42.92180 | 10.51503 | 34154 ft | 493 kts | 146° |
| 2026-05-09 07:34 | 42.89596 | 10.54575 | 34447 ft | 493 kts | 146° |
| 2026-05-09 07:34 | 42.87010 | 10.57644 | 34675 ft | 493 kts | 146° |
| 2026-05-09 07:34 | 42.84420 | 10.60713 | 34899 ft | 494 kts | 146° |
| 2026-05-09 07:35 | 42.81829 | 10.63780 | 35100 ft | 495 kts | 146° |
| 2026-05-09 07:35 | 42.76586 | 10.69971 | 35093 ft | 500 kts | 146° |
| 2026-05-09 07:36 | 42.71386 | 10.76110 | 35055 ft | 495 kts | 146° |
| 2026-05-09 07:36 | 42.66216 | 10.82205 | 35085 ft | 491 kts | 146° |
| 2026-05-09 07:37 | 42.61048 | 10.88269 | 35089 ft | 491 kts | 146° |
| 2026-05-09 07:37 | 42.55877 | 10.94322 | 35088 ft | 491 kts | 146° |
| 2026-05-09 07:38 | 42.50698 | 11.00373 | 35087 ft | 492 kts | 147° |
| 2026-05-09 07:38 | 42.45551 | 11.06376 | 35084 ft | 492 kts | 147° |
| 2026-05-09 07:39 | 42.40364 | 11.12412 | 35101 ft | 492 kts | 147° |
| 2026-05-09 07:39 | 42.35162 | 11.18449 | 35090 ft | 493 kts | 147° |
| 2026-05-09 07:40 | 42.29953 | 11.24483 | 35088 ft | 493 kts | 147° |
| 2026-05-09 07:40 | 42.24779 | 11.30463 | 35094 ft | 493 kts | 147° |
| 2026-05-09 07:41 | 42.19568 | 11.36473 | 35086 ft | 493 kts | 147° |
| 2026-05-09 07:41 | 42.14354 | 11.42471 | 35096 ft | 493 kts | 147° |
| 2026-05-09 07:42 | 42.09139 | 11.48457 | 35094 ft | 493 kts | 147° |
| 2026-05-09 07:42 | 42.03953 | 11.54396 | 35095 ft | 493 kts | 147° |
| 2026-05-09 07:43 | 41.98730 | 11.60365 | 35084 ft | 493 kts | 147° |
| 2026-05-09 07:43 | 41.93504 | 11.66324 | 35098 ft | 493 kts | 147° |
| 2026-05-09 07:44 | 41.88274 | 11.72275 | 35111 ft | 493 kts | 147° |
| 2026-05-09 07:44 | 41.83140 | 11.78129 | 34589 ft | 484 kts | 145° |
| 2026-05-09 07:44 | 41.80760 | 11.81374 | 33936 ft | 493 kts | 137° |
| 2026-05-09 07:45 | 41.78513 | 11.84877 | 33210 ft | 496 kts | 136° |
| 2026-05-09 07:45 | 41.76308 | 11.88433 | 32615 ft | 496 kts | 135° |
| 2026-05-09 07:45 | 41.74114 | 11.91992 | 32000 ft | 495 kts | 135° |
| 2026-05-09 07:45 | 41.71912 | 11.95539 | 31341 ft | 496 kts | 135° |
| 2026-05-09 07:46 | 41.69693 | 11.99071 | 30661 ft | 496 kts | 135° |
| 2026-05-09 07:46 | 41.67456 | 12.02597 | 29955 ft | 497 kts | 135° |
| 2026-05-09 07:46 | 41.65243 | 12.06062 | 29146 ft | 497 kts | 134° |
| 2026-05-09 07:46 | 41.62991 | 12.09572 | 28424 ft | 496 kts | 134° |
| 2026-05-09 07:47 | 41.60762 | 12.13042 | 27951 ft | 489 kts | 134° |
| 2026-05-09 07:47 | 41.58559 | 12.16467 | 27494 ft | 482 kts | 135° |
| 2026-05-09 07:47 | 41.56384 | 12.19847 | 26970 ft | 478 kts | 135° |
| 2026-05-09 07:47 | 41.54225 | 12.23196 | 26403 ft | 475 kts | 135° |
| 2026-05-09 07:48 | 41.52082 | 12.26516 | 25930 ft | 469 kts | 135° |
| 2026-05-09 07:48 | 41.49992 | 12.29753 | 25503 ft | 464 kts | 135° |
| 2026-05-09 07:48 | 41.47898 | 12.32992 | 25066 ft | 459 kts | 135° |
| 2026-05-09 07:48 | 41.45824 | 12.36197 | 24650 ft | 454 kts | 135° |
| 2026-05-09 07:49 | 41.43772 | 12.39363 | 24234 ft | 449 kts | 135° |
| 2026-05-09 07:49 | 41.41741 | 12.42495 | 23836 ft | 445 kts | 135° |
| 2026-05-09 07:49 | 41.39731 | 12.45591 | 23455 ft | 439 kts | 135° |
| 2026-05-09 07:49 | 41.37749 | 12.48642 | 23051 ft | 433 kts | 135° |
| 2026-05-09 07:50 | 41.35787 | 12.51658 | 22654 ft | 428 kts | 134° |
| 2026-05-09 07:50 | 41.33875 | 12.54592 | 22277 ft | 423 kts | 134° |
| 2026-05-09 07:50 | 41.31958 | 12.57534 | 21914 ft | 418 kts | 134° |
| 2026-05-09 07:50 | 41.30059 | 12.60443 | 21558 ft | 416 kts | 134° |
| 2026-05-09 07:51 | 41.28170 | 12.63333 | 21190 ft | 412 kts | 134° |
| 2026-05-09 07:51 | 41.26294 | 12.66202 | 20845 ft | 410 kts | 134° |
| 2026-05-09 07:51 | 41.24429 | 12.69051 | 20500 ft | 407 kts | 134° |
| 2026-05-09 07:51 | 41.22579 | 12.71875 | 20158 ft | 404 kts | 134° |
| 2026-05-09 07:52 | 41.20736 | 12.74686 | 19827 ft | 402 kts | 133° |
| 2026-05-09 07:52 | 41.18931 | 12.77437 | 19495 ft | 400 kts | 133° |
| 2026-05-09 07:52 | 41.17108 | 12.80211 | 19164 ft | 398 kts | 133° |
| 2026-05-09 07:52 | 41.15291 | 12.82975 | 18839 ft | 396 kts | 133° |
| 2026-05-09 07:53 | 41.13485 | 12.85720 | 18519 ft | 394 kts | 133° |
| 2026-05-09 07:53 | 41.11685 | 12.88452 | 18171 ft | 392 kts | 133° |
| 2026-05-09 07:53 | 41.09893 | 12.91171 | 17804 ft | 391 kts | 133° |
| 2026-05-09 07:53 | 41.08110 | 12.93873 | 17445 ft | 389 kts | 133° |
| 2026-05-09 07:54 | 41.06333 | 12.96565 | 17084 ft | 387 kts | 133° |
| 2026-05-09 07:54 | 41.04565 | 12.99240 | 16728 ft | 385 kts | 133° |
| 2026-05-09 07:54 | 41.02831 | 13.01862 | 16370 ft | 383 kts | 133° |
| 2026-05-09 07:54 | 41.01081 | 13.04505 | 16023 ft | 380 kts | 133° |
| 2026-05-09 07:55 | 40.99346 | 13.07124 | 15679 ft | 378 kts | 133° |
| 2026-05-09 07:55 | 40.97620 | 13.09726 | 15337 ft | 375 kts | 133° |
| 2026-05-09 07:55 | 40.95907 | 13.12306 | 15004 ft | 372 kts | 133° |
| 2026-05-09 07:55 | 40.94204 | 13.14869 | 14667 ft | 370 kts | 132° |
| 2026-05-09 07:56 | 40.92512 | 13.17414 | 14309 ft | 367 kts | 132° |
| 2026-05-09 07:56 | 40.90849 | 13.19914 | 13968 ft | 365 kts | 132° |
| 2026-05-09 07:56 | 40.89178 | 13.22422 | 13588 ft | 363 kts | 132° |
| 2026-05-09 07:56 | 40.87515 | 13.24917 | 13198 ft | 360 kts | 132° |
| 2026-05-09 07:57 | 40.85867 | 13.27388 | 12816 ft | 357 kts | 132° |
| 2026-05-09 07:57 | 40.84234 | 13.29834 | 12436 ft | 354 kts | 132° |
| 2026-05-09 07:57 | 40.82612 | 13.32263 | 12060 ft | 351 kts | 132° |
| 2026-05-09 07:57 | 40.81000 | 13.34673 | 11687 ft | 348 kts | 132° |
| 2026-05-09 07:58 | 40.79406 | 13.37057 | 11321 ft | 345 kts | 132° |
| 2026-05-09 07:58 | 40.77821 | 13.39424 | 10969 ft | 342 kts | 132° |
| 2026-05-09 07:58 | 40.76260 | 13.41754 | 10728 ft | 336 kts | 132° |
| 2026-05-09 07:58 | 40.74749 | 13.44006 | 10554 ft | 328 kts | 131° |
| 2026-05-09 07:59 | 40.73428 | 13.46384 | 10473 ft | 317 kts | 118° |
| 2026-05-09 07:59 | 40.72625 | 13.49040 | 10313 ft | 309 kts | 107° |
| 2026-05-09 07:59 | 40.72026 | 13.51739 | 10028 ft | 307 kts | 104° |
| 2026-05-09 07:59 | 40.71468 | 13.54449 | 9696 ft | 306 kts | 104° |
| 2026-05-09 08:00 | 40.70920 | 13.57145 | 9398 ft | 303 kts | 104° |
| 2026-05-09 08:00 | 40.70379 | 13.59815 | 9100 ft | 301 kts | 104° |
| 2026-05-09 08:00 | 40.69849 | 13.62435 | 8799 ft | 299 kts | 104° |
| 2026-05-09 08:00 | 40.69317 | 13.65070 | 8508 ft | 297 kts | 104° |
| 2026-05-09 08:01 | 40.68789 | 13.67684 | 8227 ft | 294 kts | 104° |
| 2026-05-09 08:01 | 40.68264 | 13.70279 | 7943 ft | 292 kts | 104° |
| 2026-05-09 08:01 | 40.67743 | 13.72853 | 7655 ft | 290 kts | 104° |
| 2026-05-09 08:01 | 40.67228 | 13.75395 | 7321 ft | 286 kts | 104° |
| 2026-05-09 08:02 | 40.66716 | 13.77920 | 6922 ft | 284 kts | 104° |
| 2026-05-09 08:02 | 40.66208 | 13.80425 | 6542 ft | 282 kts | 104° |
| 2026-05-09 08:02 | 40.65705 | 13.82918 | 6191 ft | 281 kts | 102° |
| 2026-05-09 08:02 | 40.65650 | 13.85403 | 5901 ft | 275 kts | 72° |
| 2026-05-09 08:03 | 40.66548 | 13.87572 | 5659 ft | 268 kts | 51° |
| 2026-05-09 08:03 | 40.67666 | 13.89535 | 5356 ft | 267 kts | 52° |
| 2026-05-09 08:03 | 40.68749 | 13.91514 | 5090 ft | 265 kts | 53° |
| 2026-05-09 08:03 | 40.69844 | 13.93426 | 4909 ft | 258 kts | 51° |
| 2026-05-09 08:04 | 40.70936 | 13.95280 | 4690 ft | 253 kts | 52° |
| 2026-05-09 08:04 | 40.71946 | 13.97161 | 4500 ft | 248 kts | 55° |
| 2026-05-09 08:04 | 40.72902 | 13.99023 | 4351 ft | 241 kts | 55° |
| 2026-05-09 08:04 | 40.73808 | 14.00771 | 4258 ft | 227 kts | 54° |
| 2026-05-09 08:05 | 40.74682 | 14.02435 | 4128 ft | 215 kts | 54° |
| 2026-05-09 08:05 | 40.75528 | 14.04024 | 3957 ft | 209 kts | 54° |
| 2026-05-09 08:05 | 40.76343 | 14.05593 | 3841 ft | 205 kts | 54° |
| 2026-05-09 08:05 | 40.77142 | 14.07125 | 3725 ft | 201 kts | 54° |
| 2026-05-09 08:06 | 40.77943 | 14.08621 | 3551 ft | 199 kts | 53° |
| 2026-05-09 08:06 | 40.78743 | 14.10107 | 3402 ft | 200 kts | 53° |
| 2026-05-09 08:06 | 40.79547 | 14.11589 | 3278 ft | 197 kts | 53° |
| 2026-05-09 08:06 | 40.80314 | 14.13028 | 3190 ft | 191 kts | 54° |
| 2026-05-09 08:07 | 40.81070 | 14.14451 | 3030 ft | 189 kts | 53° |
| 2026-05-09 08:07 | 40.81829 | 14.15864 | 2796 ft | 188 kts | 53° |
| 2026-05-09 08:07 | 40.82598 | 14.17249 | 2582 ft | 186 kts | 52° |
| 2026-05-09 08:07 | 40.83377 | 14.18594 | 2364 ft | 182 kts | 51° |
| 2026-05-09 08:08 | 40.84132 | 14.19894 | 2093 ft | 173 kts | 52° |
| 2026-05-09 08:08 | 40.84819 | 14.21159 | 1824 ft | 164 kts | 54° |
| 2026-05-09 08:08 | 40.85422 | 14.22374 | 1556 ft | 155 kts | 57° |
| 2026-05-09 08:08 | 40.85985 | 14.23535 | 1300 ft | 150 kts | 57° |
| 2026-05-09 08:09 | 40.86541 | 14.24708 | 1072 ft | 151 kts | 57° |
| 2026-05-09 08:09 | 40.87100 | 14.25879 | 815 ft | 150 kts | 57° |
| 2026-05-09 08:09 | 40.87644 | 14.27043 | 566 ft | 147 kts | 57° |
| 2026-05-09 08:09 | 40.88181 | 14.28180 | 323 ft | 145 kts | 57° |
| 2026-05-09 08:10 | 40.88667 | 14.29209 | 260 ft | 107 kts | 58° |
| 2026-05-09 08:10 | 40.88955 | 14.29818 | 247 ft | 50 kts | 58° |
| 2026-05-09 08:10 | 40.89062 | 14.30046 | 239 ft | 16 kts | 58° |
| 2026-05-09 08:10 | 40.89034 | 14.30143 | 234 ft | 14 kts | 147° |
| 2026-05-09 08:11 | 40.88959 | 14.30182 | 234 ft | 11 kts | 202° |
| 2026-05-09 08:11 | 40.88904 | 14.30094 | 237 ft | 16 kts | 232° |
| 2026-05-09 08:11 | 40.88821 | 14.29950 | 241 ft | 23 kts | 232° |
| 2026-05-09 08:11 | 40.88714 | 14.29765 | 244 ft | 26 kts | 233° |
| 2026-05-09 08:12 | 40.88513 | 14.29417 | 257 ft | 23 kts | 232° |
| 2026-05-09 08:12 | 40.88418 | 14.29254 | 262 ft | 22 kts | 232° |
| 2026-05-09 08:12 | 40.88327 | 14.29095 | 271 ft | 21 kts | 233° |
| 2026-05-09 08:13 | 40.88239 | 14.28943 | 275 ft | 21 kts | 233° |
| 2026-05-09 08:13 | 40.88153 | 14.28793 | 280 ft | 20 kts | 232° |
| 2026-05-09 08:13 | 40.88069 | 14.28648 | 283 ft | 20 kts | 233° |
| 2026-05-09 08:13 | 40.88045 | 14.28508 | 289 ft | 16 kts | 276° |
| 2026-05-09 08:14 | 40.88058 | 14.28368 | 287 ft | 15 kts | 277° |
| 2026-05-09 08:14 | 40.88062 | 14.28235 | 292 ft | 14 kts | 252° |
| 2026-05-09 08:14 | 40.88005 | 14.28134 | 300 ft | 13 kts | 214° |
| 2026-05-09 08:14 | 40.87929 | 14.28071 | 302 ft | 13 kts | 229° |
| 2026-05-09 08:15 | 40.87883 | 14.27998 | 304 ft | 6 kts | 226° |
| 2026-05-09 08:15 | 40.87845 | 14.28009 | 303 ft | 6 kts | 143° |
| 2026-05-09 08:15 | 40.87818 | 14.28037 | 301 ft | 3 kts | 141° |
| 2026-05-09 08:15 | 40.87816 | 14.28039 | 301 ft | 0 kts | 141° |
| 2026-05-09 08:17 | 40.87816 | 14.28040 | 301 ft | 0 kts | 141° |
| 2026-05-09 08:22 | 40.87815 | 14.28040 | 301 ft | 0 kts | 141° |